Time;durP1;ratioP1;P1;durP2;ratioP2;P2;SDS_P1;SDS_P2;PMS_P1;PMS_P2;Temp;Humidity;BMP_temperature;BMP_pressure;BME280_temperature;BME280_humidity;BME280_pressure;Samples;Min_cycle;Max_cycle;Signal;HPM_P1;HPM_P2
2023/12/01 00:00:08;;;;;;;6.18;4.40;;;14.40;62.90;;;;;;10366159;28;20026;-57
2023/12/01 00:05:09;;;;;;;5.53;4.03;;;14.30;62.90;;;;;;10366197;28;20076;-57
2023/12/01 00:10:13;;;;;;;6.13;3.97;;;14.30;62.80;;;;;;10381996;28;20662;-57
2023/12/01 00:15:13;;;;;;;5.38;3.83;;;14.30;62.80;;;;;;10367523;28;20439;-56
2023/12/01 00:20:14;;;;;;;4.43;3.55;;;14.30;62.90;;;;;;10365785;28;20060;-58
2023/12/01 00:25:15;;;;;;;5.43;3.50;;;14.30;63.00;;;;;;10365810;28;20105;-58
2023/12/01 00:30:16;;;;;;;6.03;3.47;;;14.20;62.90;;;;;;10373214;28;20061;-56
2023/12/01 00:35:16;;;;;;;7.30;4.80;;;14.20;62.90;;;;;;10366885;28;20104;-58
2023/12/01 00:40:17;;;;;;;5.53;3.47;;;14.20;63.00;;;;;;10366483;28;20524;-57
2023/12/01 00:45:18;;;;;;;5.25;3.42;;;14.10;63.00;;;;;;10373124;28;20416;-57
2023/12/01 00:50:19;;;;;;;5.35;3.47;;;14.20;63.00;;;;;;10373185;28;20030;-58
2023/12/01 00:55:19;;;;;;;5.18;3.38;;;14.20;63.00;;;;;;10371156;28;20050;-57
2023/12/01 01:00:22;;;;;;;6.60;3.45;;;14.10;62.90;;;;;;10370748;28;20062;-57
2023/12/01 01:05:23;;;;;;;5.65;3.78;;;14.10;62.90;;;;;;10369829;28;20057;-57
2023/12/01 01:10:23;;;;;;;5.53;3.65;;;14.10;63.00;;;;;;10369609;28;20040;-58
2023/12/01 01:15:24;;;;;;;5.40;3.45;;;14.10;63.00;;;;;;10368874;28;20041;-57
2023/12/01 01:20:25;;;;;;;5.00;3.80;;;14.10;62.90;;;;;;10369481;28;20037;-57
2023/12/01 01:25:25;;;;;;;5.53;4.07;;;14.10;62.90;;;;;;10369736;28;20025;-57
2023/12/01 01:30:26;;;;;;;6.57;3.95;;;14.10;62.90;;;;;;10376613;28;20028;-57
2023/12/01 01:35:27;;;;;;;6.07;3.70;;;14.00;63.00;;;;;;10369539;28;20056;-56
2023/12/01 01:40:28;;;;;;;5.70;3.78;;;14.00;63.00;;;;;;10368301;28;20026;-57
2023/12/01 01:45:28;;;;;;;7.18;4.70;;;14.00;63.00;;;;;;10367874;28;20165;-58
2023/12/01 01:50:29;;;;;;;6.72;4.43;;;14.00;63.00;;;;;;10368018;28;20303;-57
2023/12/01 01:55:30;;;;;;;6.88;3.85;;;14.00;63.00;;;;;;10367293;28;20053;-57
2023/12/01 02:00:31;;;;;;;5.75;3.75;;;14.00;63.10;;;;;;10368875;28;20034;-57
2023/12/01 02:05:34;;;;;;;6.90;4.75;;;14.00;63.00;;;;;;10366969;28;20477;-57
2023/12/01 02:10:36;;;;;;;7.60;4.20;;;14.00;62.90;;;;;;10367079;28;20037;-57
2023/12/01 02:15:37;;;;;;;7.10;4.65;;;13.90;62.80;;;;;;10368193;28;20036;-56
2023/12/01 02:20:38;;;;;;;9.45;4.97;;;13.90;62.90;;;;;;10368071;28;20042;-57
2023/12/01 02:25:38;;;;;;;7.65;4.15;;;13.90;62.90;;;;;;10367575;28;20273;-58
2023/12/01 02:30:42;;;;;;;6.47;4.45;;;13.90;62.90;;;;;;10374147;28;20030;-57
2023/12/01 02:35:53;;;;;;;6.85;4.47;;;13.90;62.90;;;;;;10366000;28;20117;-58
2023/12/01 02:40:54;;;;;;;7.78;4.25;;;13.90;62.90;;;;;;10367552;28;20030;-57
2023/12/01 02:45:55;;;;;;;7.32;4.20;;;13.90;63.00;;;;;;10351510;28;20035;-57
2023/12/01 02:50:56;;;;;;;6.85;4.32;;;13.80;62.90;;;;;;10325543;28;20097;-57
2023/12/01 02:55:56;;;;;;;7.47;5.10;;;13.80;63.00;;;;;;10324452;28;20050;-57
2023/12/01 03:00:57;;;;;;;7.80;4.82;;;13.80;63.00;;;;;;10341505;28;20036;-57
2023/12/01 03:05:58;;;;;;;7.10;4.60;;;13.80;62.90;;;;;;10365407;28;20029;-56
2023/12/01 03:10:58;;;;;;;9.73;4.97;;;13.80;63.10;;;;;;10364860;28;20096;-57
2023/12/01 03:15:59;;;;;;;8.50;5.40;;;13.80;63.00;;;;;;10364461;28;20048;-56
2023/12/01 03:21:00;;;;;;;8.00;4.95;;;13.70;62.70;;;;;;10364998;28;20084;-56
2023/12/01 03:26:01;;;;;;;10.05;6.25;;;13.80;62.80;;;;;;10365365;28;20033;-57
2023/12/01 03:31:02;;;;;;;8.57;5.53;;;13.70;62.80;;;;;;10373074;28;20026;-57
2023/12/01 03:36:03;;;;;;;9.57;6.05;;;13.70;63.40;;;;;;10364007;28;20429;-57
2023/12/01 03:41:05;;;;;;;11.05;6.25;;;13.70;62.70;;;;;;10365373;28;20033;-56
2023/12/01 03:46:06;;;;;;;10.82;6.43;;;13.70;62.80;;;;;;10364619;28;20036;-57
2023/12/01 03:51:11;;;;;;;13.07;6.97;;;13.70;62.70;;;;;;10365238;28;20578;-57
2023/12/01 03:56:11;;;;;;;12.40;6.78;;;13.70;62.80;;;;;;10364965;28;20124;-57
2023/12/01 04:01:12;;;;;;;12.57;5.95;;;13.70;62.70;;;;;;10364903;28;20068;-57
2023/12/01 04:06:13;;;;;;;10.70;6.60;;;13.70;62.60;;;;;;10363088;28;20022;-56
2023/12/01 04:11:14;;;;;;;11.48;7.45;;;13.60;62.70;;;;;;10364751;28;20030;-56
2023/12/01 04:16:14;;;;;;;10.75;6.25;;;13.60;62.60;;;;;;10364533;28;20060;-57
2023/12/01 04:21:15;;;;;;;13.70;8.55;;;13.60;62.60;;;;;;10372794;28;20033;-56
2023/12/01 04:26:16;;;;;;;8.30;5.80;;;13.60;62.60;;;;;;10387202;28;20037;-56
2023/12/01 04:31:16;;;;;;;10.85;6.60;;;13.60;62.60;;;;;;10379479;28;20029;-57
2023/12/01 04:36:17;;;;;;;12.35;7.72;;;13.60;62.70;;;;;;10350977;28;20408;-57
2023/12/01 04:41:18;;;;;;;10.05;6.85;;;13.60;62.80;;;;;;10385071;28;20034;-58
2023/12/01 04:46:19;;;;;;;11.18;6.60;;;13.60;62.80;;;;;;10390566;28;20646;-58
2023/12/01 04:51:19;;;;;;;11.50;6.60;;;13.60;62.70;;;;;;10382710;28;20464;-56
2023/12/01 04:56:20;;;;;;;11.48;7.03;;;13.50;62.70;;;;;;10378306;28;20692;-57
2023/12/01 05:01:21;;;;;;;10.07;6.55;;;13.50;62.70;;;;;;10393319;28;20042;-57
2023/12/01 05:06:21;;;;;;;11.82;6.72;;;13.50;62.80;;;;;;10385993;28;20029;-57
2023/12/01 05:11:22;;;;;;;11.98;6.65;;;13.50;62.60;;;;;;10392119;28;20030;-57
2023/12/01 05:16:23;;;;;;;10.00;6.28;;;13.50;62.90;;;;;;10374787;28;20482;-58
2023/12/01 05:21:24;;;;;;;11.48;8.10;;;13.70;62.70;;;;;;10366975;28;20079;-58
2023/12/01 05:26:25;;;;;;;10.10;6.82;;;13.80;62.70;;;;;;10392121;28;20022;-57
2023/12/01 05:31:26;;;;;;;12.63;8.25;;;14.00;62.10;;;;;;10371031;28;20547;-58
2023/12/01 05:36:26;;;;;;;11.82;6.75;;;14.10;61.80;;;;;;10413033;28;20036;-56
2023/12/01 05:41:27;;;;;;;11.32;6.60;;;14.20;61.60;;;;;;10385311;28;20092;-58
2023/12/01 05:46:28;;;;;;;12.60;8.07;;;14.30;61.00;;;;;;10377987;28;20029;-57
2023/12/01 05:51:30;;;;;;;13.88;8.20;;;14.40;60.60;;;;;;10371985;28;20030;-59
2023/12/01 05:56:30;;;;;;;15.88;8.93;;;14.50;61.00;;;;;;10367667;28;20564;-57
2023/12/01 06:01:31;;;;;;;30.35;10.45;;;14.60;60.90;;;;;;10369370;28;20034;-58
2023/12/01 06:06:32;;;;;;;16.08;8.38;;;14.80;61.20;;;;;;10370306;28;20032;-57
2023/12/01 06:11:32;;;;;;;27.08;11.23;;;15.10;60.80;;;;;;10354003;28;20095;-58
2023/12/01 06:16:33;;;;;;;25.65;10.25;;;15.20;61.60;;;;;;10367983;28;20029;-57
2023/12/01 06:21:34;;;;;;;24.55;9.95;;;15.40;62.10;;;;;;10368147;28;20030;-57
2023/12/01 06:26:35;;;;;;;29.20;10.57;;;15.60;61.40;;;;;;10367358;28;20495;-57
2023/12/01 06:31:36;;;;;;;19.33;9.23;;;15.60;62.50;;;;;;10375202;28;20029;-58
2023/12/01 06:36:37;;;;;;;24.67;9.63;;;15.60;62.40;;;;;;10367096;28;20440;-59
2023/12/01 06:41:38;;;;;;;17.90;8.32;;;15.70;61.50;;;;;;10340586;28;20037;-59
2023/12/01 06:46:39;;;;;;;19.05;8.63;;;15.70;61.60;;;;;;10363247;28;20084;-60
2023/12/01 06:51:39;;;;;;;40.22;10.00;;;15.80;61.20;;;;;;10365828;28;20108;-58
2023/12/01 06:56:40;;;;;;;37.70;10.63;;;15.90;60.70;;;;;;10364385;28;20046;-59
2023/12/01 07:01:41;;;;;;;22.73;8.40;;;15.80;61.00;;;;;;10366659;28;20041;-59
2023/12/01 07:06:46;;;;;;;17.80;7.60;;;16.00;60.20;;;;;;10364869;28;20040;-59
2023/12/01 07:11:46;;;;;;;18.58;8.90;;;16.20;59.70;;;;;;10366349;28;20030;-64
2023/12/01 07:16:47;;;;;;;18.40;8.82;;;16.20;59.50;;;;;;10365450;28;20389;-57
2023/12/01 07:21:48;;;;;;;19.73;9.02;;;16.10;59.80;;;;;;10364963;28;20026;-58
2023/12/01 07:26:51;;;;;;;22.20;9.85;;;16.10;59.80;;;;;;10345931;28;20036;-58
2023/12/01 07:31:52;;;;;;;15.85;7.78;;;16.20;59.40;;;;;;10359320;28;20040;-59
2023/12/01 07:36:53;;;;;;;16.85;8.00;;;16.20;59.10;;;;;;10366212;28;20028;-59
2023/12/01 07:41:53;;;;;;;17.90;8.63;;;16.20;59.20;;;;;;10367779;28;20029;-58
2023/12/01 07:46:54;;;;;;;15.50;9.15;;;16.30;58.80;;;;;;10364059;28;20021;-58
2023/12/01 07:51:55;;;;;;;16.63;8.15;;;16.40;58.70;;;;;;10365822;28;20034;-59
2023/12/01 07:56:56;;;;;;;16.00;7.78;;;16.40;58.40;;;;;;10364529;28;20049;-58
2023/12/01 08:01:57;;;;;;;12.00;6.10;;;16.50;58.30;;;;;;10366832;28;20129;-58
2023/12/01 08:06:57;;;;;;;13.65;6.38;;;16.60;58.10;;;;;;10351617;28;20034;-59
2023/12/01 08:11:59;;;;;;;13.80;7.60;;;16.50;58.40;;;;;;10325132;28;20045;-58
2023/12/01 08:16:59;;;;;;;13.05;7.25;;;16.50;58.30;;;;;;10325875;28;20050;-58
2023/12/01 08:22:00;;;;;;;9.90;6.35;;;16.60;57.90;;;;;;10325554;28;20037;-57
2023/12/01 08:27:01;;;;;;;11.50;6.28;;;16.70;57.70;;;;;;10325165;28;20035;-59
2023/12/01 08:32:03;;;;;;;10.60;6.63;;;16.70;57.70;;;;;;10359262;28;20037;-58
2023/12/01 08:37:03;;;;;;;10.55;6.38;;;16.60;57.60;;;;;;10332280;28;20113;-57
2023/12/01 08:42:04;;;;;;;12.23;6.63;;;16.70;57.50;;;;;;10335059;28;20064;-58
2023/12/01 08:47:05;;;;;;;11.57;6.68;;;16.60;57.50;;;;;;10366084;28;20045;-58
2023/12/01 08:52:07;;;;;;;9.88;6.45;;;16.70;57.50;;;;;;10364540;28;20504;-58
2023/12/01 08:57:08;;;;;;;10.10;6.68;;;16.70;57.40;;;;;;10364842;28;20030;-58
2023/12/01 09:02:08;;;;;;;8.73;5.30;;;16.70;57.30;;;;;;10363913;28;20030;-58
2023/12/01 09:07:09;;;;;;;9.25;5.60;;;16.70;57.20;;;;;;10343112;28;20096;-58
2023/12/01 09:12:10;;;;;;;9.85;5.32;;;16.70;57.90;;;;;;10332077;28;20422;-57
2023/12/01 09:17:11;;;;;;;10.88;5.53;;;16.70;57.10;;;;;;10345539;28;20032;-57
2023/12/01 09:22:11;;;;;;;10.18;6.03;;;16.70;57.10;;;;;;10329864;28;20141;-58
2023/12/01 09:27:12;;;;;;;11.00;5.93;;;16.70;57.00;;;;;;10331206;28;20529;-59
2023/12/01 09:32:13;;;;;;;9.38;4.85;;;16.80;56.90;;;;;;10366362;28;20524;-58
2023/12/01 09:37:14;;;;;;;9.60;5.85;;;16.90;56.70;;;;;;10369430;28;20041;-58
2023/12/01 09:42:16;;;;;;;13.50;5.90;;;16.90;56.50;;;;;;10347260;28;20034;-59
2023/12/01 09:47:20;;;;;;;7.60;4.93;;;17.00;56.50;;;;;;10369666;28;20024;-58
2023/12/01 09:52:21;;;;;;;7.60;4.82;;;17.00;56.40;;;;;;10369061;28;20092;-58
2023/12/01 09:57:22;;;;;;;9.10;4.90;;;17.00;56.70;;;;;;10356102;28;20046;-58
2023/12/01 10:02:22;;;;;;;9.35;4.40;;;16.90;56.80;;;;;;10370299;28;20033;-57
2023/12/01 10:07:23;;;;;;;8.02;5.57;;;17.00;56.60;;;;;;10376013;28;20026;-58
2023/12/01 10:12:24;;;;;;;7.78;4.53;;;17.00;56.50;;;;;;10337203;28;20482;-59
2023/12/01 10:17:27;;;;;;;8.27;4.35;;;16.90;56.80;;;;;;10328346;28;20053;-58
2023/12/01 10:22:28;;;;;;;9.25;5.10;;;16.90;56.90;;;;;;10330405;28;20081;-58
2023/12/01 10:27:29;;;;;;;8.13;5.05;;;17.00;56.60;;;;;;10328749;28;20069;-58
2023/12/01 10:32:30;;;;;;;10.43;4.15;;;17.00;57.50;;;;;;10366566;28;20029;-58
2023/12/01 10:37:32;;;;;;;8.20;4.13;;;17.10;58.40;;;;;;10368568;28;20038;-58
2023/12/01 10:42:36;;;;;;;6.75;3.88;;;17.20;59.20;;;;;;10367473;28;20465;-57
2023/12/01 10:47:43;;;;;;;10.43;3.80;;;17.10;59.30;;;;;;10344104;28;20061;-56
2023/12/01 10:52:46;;;;;;;9.35;4.15;;;17.10;59.40;;;;;;10359620;28;20125;-58
2023/12/01 10:57:47;;;;;;;8.45;3.85;;;17.10;59.30;;;;;;10338900;28;20037;-58
2023/12/01 11:02:50;;;;;;;8.35;4.60;;;17.10;59.90;;;;;;10368214;28;20049;-59
2023/12/01 11:08:24;;;;;;;7.93;4.75;;;17.20;59.00;;;;;;10366742;28;20478;-58
2023/12/01 11:13:51;;;;;;;9.60;3.47;;;17.10;59.10;;;;;;10365299;28;20056;-57
2023/12/01 11:18:53;;;;;;;9.45;4.70;;;17.20;58.90;;;;;;10366137;28;20125;-58
2023/12/01 11:23:54;;;;;;;10.43;4.63;;;17.20;58.80;;;;;;10365958;28;20057;-57
2023/12/01 11:29:09;;;;;;;10.07;4.35;;;17.20;58.80;;;;;;10368648;28;20037;-57
2023/12/01 11:34:13;;;;;;;9.00;4.38;;;17.30;58.70;;;;;;10369002;28;20054;-57
2023/12/01 11:39:20;;;;;;;8.55;4.25;;;17.20;58.80;;;;;;10362931;28;20033;-57
2023/12/01 11:44:40;;;;;;;12.77;5.05;;;17.20;58.80;;;;;;10366338;28;20030;-57
2023/12/01 11:49:44;;;;;;;8.93;3.72;;;17.30;58.90;;;;;;10365601;28;20432;-54
2023/12/01 11:54:49;;;;;;;18.48;4.25;;;17.20;59.30;;;;;;10366925;28;20038;-56
2023/12/01 11:59:49;;;;;;;9.27;3.53;;;17.20;59.60;;;;;;10365119;28;20370;-55
2023/12/01 12:04:50;;;;;;;7.20;3.42;;;17.40;59.30;;;;;;10366447;28;20034;-55
2023/12/01 12:09:51;;;;;;;6.97;4.03;;;17.30;59.40;;;;;;10365912;28;20033;-57
2023/12/01 12:14:55;;;;;;;9.00;3.83;;;17.30;59.30;;;;;;10361305;28;20036;-57
2023/12/01 12:19:56;;;;;;;7.60;3.92;;;17.40;59.00;;;;;;10365505;28;20057;-58
2023/12/01 12:24:56;;;;;;;12.65;4.88;;;17.30;59.10;;;;;;10365237;28;20033;-57
2023/12/01 12:30:01;;;;;;;16.52;4.15;;;17.40;59.20;;;;;;10365827;28;20045;-58
2023/12/01 12:35:02;;;;;;;8.35;3.72;;;17.40;59.00;;;;;;10363030;28;20025;-57
2023/12/01 12:40:08;;;;;;;12.82;4.25;;;17.50;58.90;;;;;;10369115;28;20505;-57
2023/12/01 12:45:09;;;;;;;11.43;3.63;;;17.50;58.70;;;;;;10384746;28;20137;-57
2023/12/01 12:50:10;;;;;;;11.02;3.83;;;17.50;59.10;;;;;;10371854;28;20108;-59
2023/12/01 12:55:11;;;;;;;11.90;3.47;;;17.50;58.90;;;;;;10372860;28;20420;-58
2023/12/01 13:00:13;;;;;;;8.55;3.30;;;17.40;58.50;;;;;;10366346;28;20076;-57
2023/12/01 13:05:14;;;;;;;6.80;2.78;;;17.40;58.10;;;;;;10371312;28;20398;-59
2023/12/01 13:10:14;;;;;;;10.57;2.63;;;17.50;58.00;;;;;;10371619;28;20061;-59
2023/12/01 13:15:15;;;;;;;7.53;2.70;;;17.50;57.90;;;;;;10371745;28;20034;-58
2023/12/01 13:20:17;;;;;;;9.77;3.20;;;17.40;58.00;;;;;;10362358;28;20021;-58
2023/12/01 13:25:17;;;;;;;8.55;4.60;;;17.30;58.20;;;;;;10371586;28;20030;-57
2023/12/01 13:30:18;;;;;;;10.48;3.13;;;17.40;58.60;;;;;;10377566;28;20038;-58
2023/12/01 13:35:19;;;;;;;10.35;3.70;;;17.50;58.70;;;;;;10371005;28;20080;-57
2023/12/01 13:40:20;;;;;;;18.83;4.68;;;17.50;58.50;;;;;;10364372;28;20184;-59
2023/12/01 13:45:21;;;;;;;18.50;4.13;;;17.50;59.10;;;;;;10368756;28;20022;-59
2023/12/01 13:50:22;;;;;;;20.17;4.45;;;17.50;59.00;;;;;;10368068;28;20114;-60
2023/12/01 13:55:24;;;;;;;35.30;5.20;;;17.40;59.60;;;;;;10370295;28;20505;-60
2023/12/01 14:00:25;;;;;;;32.25;5.82;;;17.60;59.10;;;;;;10366550;28;20041;-58
2023/12/01 14:05:27;;;;;;;22.13;5.18;;;17.70;59.10;;;;;;10365606;28;20026;-62
2023/12/01 14:10:28;;;;;;;24.60;5.30;;;17.70;59.10;;;;;;10367737;28;20034;-61
2023/12/01 14:15:28;;;;;;;31.63;5.55;;;17.70;59.00;;;;;;10370347;28;20421;-58
2023/12/01 14:20:30;;;;;;;30.42;6.60;;;17.70;59.10;;;;;;10365041;28;20036;-61
2023/12/01 14:25:30;;;;;;;21.52;6.03;;;17.50;58.70;;;;;;10368459;28;20029;-58
2023/12/01 14:30:31;;;;;;;26.25;5.90;;;17.70;58.60;;;;;;10387165;28;20036;-61
2023/12/01 14:35:32;;;;;;;23.70;5.72;;;17.70;59.20;;;;;;10367584;28;20528;-60
2023/12/01 14:40:33;;;;;;;29.02;5.90;;;17.70;58.60;;;;;;10368530;28;20538;-59
2023/12/01 14:45:34;;;;;;;21.42;5.85;;;17.40;59.90;;;;;;10365328;28;20602;-60
2023/12/01 14:50:35;;;;;;;15.60;5.18;;;17.30;60.00;;;;;;10357674;28;20046;-59
2023/12/01 14:55:36;;;;;;;24.85;6.68;;;17.30;59.90;;;;;;10374513;28;20041;-59
2023/12/01 15:00:37;;;;;;;15.98;4.97;;;17.40;60.10;;;;;;10366319;28;20857;-59
2023/12/01 15:05:38;;;;;;;18.35;4.55;;;17.30;60.10;;;;;;10374686;28;20065;-60
2023/12/01 15:10:40;;;;;;;17.83;5.38;;;17.20;60.10;;;;;;10368141;28;20038;-59
2023/12/01 15:15:41;;;;;;;22.77;6.28;;;17.50;59.40;;;;;;10373453;28;20030;-59
2023/12/01 15:20:41;;;;;;;21.08;5.72;;;17.40;59.50;;;;;;10371580;28;20033;-59
2023/12/01 15:25:42;;;;;;;14.35;3.75;;;17.40;59.80;;;;;;10356372;28;20047;-59
2023/12/01 15:30:43;;;;;;;27.63;5.72;;;17.40;59.90;;;;;;10369577;28;20463;-61
2023/12/01 15:35:44;;;;;;;17.52;5.70;;;17.50;60.00;;;;;;10364575;28;20052;-60
2023/12/01 15:40:44;;;;;;;18.17;4.70;;;17.50;60.00;;;;;;10362393;28;20033;-60
2023/12/01 15:45:45;;;;;;;26.08;5.05;;;17.50;60.10;;;;;;10363144;28;20042;-61
2023/12/01 15:50:46;;;;;;;24.73;5.63;;;17.40;60.50;;;;;;10363672;28;20033;-61
2023/12/01 15:55:46;;;;;;;22.27;4.97;;;17.30;60.60;;;;;;10368125;28;20078;-58
2023/12/01 16:00:47;;;;;;;29.38;6.07;;;17.30;60.80;;;;;;10357105;28;20417;-60
2023/12/01 16:05:48;;;;;;;21.13;6.07;;;17.30;61.00;;;;;;10364710;28;20500;-60
2023/12/01 16:10:49;;;;;;;27.77;6.28;;;17.20;61.50;;;;;;10366938;28;20030;-61
2023/12/01 16:15:50;;;;;;;37.58;7.03;;;17.30;60.90;;;;;;10372072;28;20477;-61
2023/12/01 16:20:51;;;;;;;27.13;6.78;;;17.30;60.70;;;;;;10366735;28;20034;-61
2023/12/01 16:25:52;;;;;;;26.73;6.15;;;17.40;61.10;;;;;;10386278;28;20025;-63
2023/12/01 16:30:53;;;;;;;28.50;7.45;;;17.30;61.10;;;;;;10378689;28;20390;-60
2023/12/01 16:35:53;;;;;;;21.92;7.25;;;17.40;62.10;;;;;;10369616;28;20324;-62
2023/12/01 16:40:54;;;;;;;22.73;5.18;;;17.40;62.10;;;;;;10364297;28;20038;-61
2023/12/01 16:45:55;;;;;;;19.50;5.75;;;17.20;61.50;;;;;;10368795;28;20033;-61
2023/12/01 16:50:55;;;;;;;17.52;5.60;;;17.10;60.80;;;;;;10370634;28;20022;-60
2023/12/01 16:55:56;;;;;;;17.23;5.78;;;17.10;60.10;;;;;;10362665;28;20045;-58
2023/12/01 17:00:57;;;;;;;12.73;6.47;;;17.00;60.00;;;;;;10359246;28;20600;-58
2023/12/01 17:05:58;;;;;;;14.77;6.15;;;17.10;59.30;;;;;;10352447;28;20036;-58
2023/12/01 17:10:58;;;;;;;13.00;6.13;;;17.20;58.50;;;;;;10358502;28;20041;-54
2023/12/01 17:15:59;;;;;;;14.70;6.82;;;17.30;61.60;;;;;;10362166;28;20060;-50
2023/12/01 17:21:00;;;;;;;19.67;6.10;;;17.40;62.00;;;;;;10329894;28;20038;-58
2023/12/01 17:26:01;;;;;;;24.33;7.28;;;17.40;62.50;;;;;;10328827;28;20023;-57
2023/12/01 17:31:02;;;;;;;16.23;6.28;;;17.50;62.80;;;;;;10354459;28;20030;-55
2023/12/01 17:36:03;;;;;;;20.67;6.57;;;17.60;61.70;;;;;;10365391;28;20038;-57
2023/12/01 17:41:04;;;;;;;18.88;5.07;;;17.60;61.40;;;;;;10381943;28;20046;-57
2023/12/01 17:46:05;;;;;;;18.10;4.68;;;17.70;61.30;;;;;;10339416;28;20563;-59
2023/12/01 17:51:06;;;;;;;33.13;6.00;;;17.70;61.00;;;;;;10328862;28;20049;-59
2023/12/01 17:56:08;;;;;;;23.38;5.47;;;17.70;61.50;;;;;;10327043;28;20076;-59
2023/12/01 18:01:08;;;;;;;21.98;5.75;;;17.70;61.50;;;;;;10328704;28;20034;-60
2023/12/01 18:06:14;;;;;;;19.25;7.30;;;17.60;61.00;;;;;;10328103;28;20038;-58
2023/12/01 18:11:14;;;;;;;18.50;6.07;;;17.60;60.40;;;;;;10327408;28;20026;-59
2023/12/01 18:16:15;;;;;;;14.82;6.35;;;17.50;60.90;;;;;;10350225;28;20088;-60
2023/12/01 18:21:16;;;;;;;15.90;5.45;;;17.50;60.20;;;;;;10359293;28;20033;-60
2023/12/01 18:26:17;;;;;;;15.18;5.88;;;17.40;60.00;;;;;;10364438;28;20477;-60
2023/12/01 18:31:18;;;;;;;17.23;5.13;;;17.50;59.60;;;;;;10366635;28;20034;-60
2023/12/01 18:36:18;;;;;;;9.80;4.95;;;17.60;59.50;;;;;;10359099;28;20490;-60
2023/12/01 18:41:19;;;;;;;10.95;5.78;;;17.50;59.70;;;;;;10363331;28;20022;-59
2023/12/01 18:46:20;;;;;;;10.48;4.95;;;17.50;59.50;;;;;;10368496;28;20057;-59
2023/12/01 18:51:20;;;;;;;9.48;4.68;;;17.60;59.00;;;;;;10369492;28;20037;-59
2023/12/01 18:56:21;;;;;;;11.10;4.43;;;17.60;59.70;;;;;;10365903;28;20030;-58
2023/12/01 19:01:22;;;;;;;13.07;4.80;;;17.50;59.20;;;;;;10368625;28;20040;-58
2023/12/01 19:06:22;;;;;;;17.02;5.55;;;17.50;59.00;;;;;;10368138;28;20038;-56
2023/12/01 19:11:23;;;;;;;7.63;4.35;;;17.50;59.30;;;;;;10368806;28;20398;-58
2023/12/01 19:16:24;;;;;;;16.15;5.03;;;17.50;59.30;;;;;;10359331;28;20392;-57
2023/12/01 19:21:25;;;;;;;11.77;4.60;;;17.40;60.10;;;;;;10352926;28;20029;-57
2023/12/01 19:26:25;;;;;;;15.32;5.32;;;17.50;59.70;;;;;;10362943;28;20057;-58
2023/12/01 19:31:26;;;;;;;13.57;4.38;;;17.50;59.50;;;;;;10373119;28;20028;-57
2023/12/01 19:36:27;;;;;;;8.65;4.60;;;17.60;59.20;;;;;;10355912;28;20032;-58
2023/12/01 19:41:28;;;;;;;9.93;4.68;;;17.50;59.40;;;;;;10356644;28;20034;-57
2023/12/01 19:46:28;;;;;;;9.38;4.00;;;17.50;59.20;;;;;;10365698;28;20461;-58
2023/12/01 19:51:29;;;;;;;9.35;5.00;;;17.50;59.20;;;;;;10358369;28;20044;-58
2023/12/01 19:56:30;;;;;;;8.05;4.05;;;17.60;59.20;;;;;;10365253;28;20049;-58
2023/12/01 20:01:32;;;;;;;9.00;4.60;;;17.50;59.00;;;;;;10366972;28;20050;-57
2023/12/01 20:06:33;;;;;;;11.38;5.72;;;17.50;59.00;;;;;;10366984;28;20569;-59
2023/12/01 20:11:34;;;;;;;14.52;5.45;;;17.50;59.10;;;;;;10364027;28;20345;-57
2023/12/01 20:16:34;;;;;;;14.52;5.68;;;17.40;59.40;;;;;;10361055;28;20030;-58
2023/12/01 20:21:36;;;;;;;8.75;5.07;;;17.30;60.30;;;;;;10366642;28;20083;-55
2023/12/01 20:26:39;;;;;;;8.73;4.78;;;17.10;61.00;;;;;;10360557;28;20041;-56
2023/12/01 20:31:40;;;;;;;10.35;5.75;;;17.00;61.40;;;;;;10369140;28;20029;-57
2023/12/01 20:36:42;;;;;;;11.38;5.40;;;16.90;61.80;;;;;;10362833;28;20139;-56
2023/12/01 20:41:42;;;;;;;9.55;6.10;;;16.80;62.00;;;;;;10352253;28;20092;-59
2023/12/01 20:46:43;;;;;;;9.07;6.00;;;16.70;61.90;;;;;;10358702;28;20081;-58
2023/12/01 20:51:48;;;;;;;11.82;5.22;;;16.60;61.40;;;;;;10363210;28;20030;-57
2023/12/01 20:56:48;;;;;;;10.38;5.85;;;16.50;61.30;;;;;;10363494;28;20103;-57
2023/12/01 21:01:49;;;;;;;8.98;4.90;;;16.40;61.30;;;;;;10369455;28;20112;-57
2023/12/01 21:06:50;;;;;;;8.07;4.93;;;16.30;61.20;;;;;;10371746;28;20036;-57
2023/12/01 21:11:50;;;;;;;13.73;5.43;;;16.30;61.30;;;;;;10372139;28;20485;-57
2023/12/01 21:16:51;;;;;;;8.20;5.13;;;16.20;61.20;;;;;;10369455;28;20030;-58
2023/12/01 21:21:52;;;;;;;10.13;5.82;;;16.10;61.20;;;;;;10368122;28;20033;-57
2023/12/01 21:26:52;;;;;;;11.07;5.90;;;16.10;61.20;;;;;;10355823;28;20030;-57
2023/12/01 21:31:53;;;;;;;8.35;5.55;;;16.00;61.30;;;;;;10339701;28;20026;-57
2023/12/01 21:36:54;;;;;;;7.68;5.53;;;15.90;61.20;;;;;;10332099;28;20473;-57
2023/12/01 21:41:55;;;;;;;7.80;5.75;;;15.90;61.30;;;;;;10340243;28;20033;-57
2023/12/01 21:46:55;;;;;;;10.13;5.88;;;15.80;61.30;;;;;;10370570;28;20030;-58
2023/12/01 21:51:56;;;;;;;9.82;5.68;;;15.70;61.10;;;;;;10372302;28;20026;-57
2023/12/01 21:56:58;;;;;;;9.40;6.22;;;15.70;61.20;;;;;;10347194;28;20046;-58
2023/12/01 22:01:58;;;;;;;10.25;6.55;;;15.70;61.20;;;;;;10331594;28;20049;-57
2023/12/01 22:06:59;;;;;;;9.02;5.75;;;15.60;61.10;;;;;;10329495;28;20048;-56
2023/12/01 22:12:00;;;;;;;8.18;5.63;;;15.60;61.10;;;;;;10329329;28;20026;-57
2023/12/01 22:17:00;;;;;;;7.30;5.07;;;15.50;60.80;;;;;;10359178;28;20026;-57
2023/12/01 22:22:01;;;;;;;9.57;5.57;;;15.50;61.10;;;;;;10369644;28;20033;-57
2023/12/01 22:27:02;;;;;;;8.95;5.97;;;15.40;61.00;;;;;;10369233;28;20030;-58
2023/12/01 22:32:03;;;;;;;7.82;5.82;;;15.40;61.20;;;;;;10378997;28;20025;-58
2023/12/01 22:37:04;;;;;;;8.25;5.70;;;15.30;61.10;;;;;;10369938;28;20231;-57
2023/12/01 22:42:07;;;;;;;7.93;5.25;;;15.30;61.10;;;;;;10370255;28;20046;-57
2023/12/01 22:47:07;;;;;;;8.65;5.68;;;15.30;60.90;;;;;;10368510;28;20034;-57
2023/12/01 22:52:08;;;;;;;9.43;6.75;;;15.20;60.70;;;;;;10368718;28;20026;-57
2023/12/01 22:57:09;;;;;;;9.35;6.60;;;15.20;60.70;;;;;;10368565;28;20054;-59
2023/12/01 23:02:10;;;;;;;10.95;6.43;;;15.20;60.50;;;;;;10342715;28;20118;-57
2023/12/01 23:07:11;;;;;;;7.30;5.40;;;15.10;60.40;;;;;;10328684;28;20524;-58
2023/12/01 23:12:12;;;;;;;8.75;6.25;;;15.10;60.40;;;;;;10328149;28;20376;-57
2023/12/01 23:17:12;;;;;;;8.82;5.88;;;15.10;60.50;;;;;;10358505;28;20091;-57
2023/12/01 23:22:13;;;;;;;7.70;5.57;;;15.10;60.40;;;;;;10349855;28;20034;-57
2023/12/01 23:27:14;;;;;;;8.63;6.05;;;15.00;60.50;;;;;;10331587;28;20743;-57
2023/12/01 23:32:14;;;;;;;8.05;5.85;;;15.00;60.50;;;;;;10376495;28;20051;-57
2023/12/01 23:37:15;;;;;;;8.00;6.07;;;15.00;60.30;;;;;;10366891;28;20041;-57
2023/12/01 23:42:16;;;;;;;8.30;5.75;;;15.00;60.20;;;;;;10366275;28;20420;-58
2023/12/01 23:47:17;;;;;;;7.30;5.07;;;14.90;60.20;;;;;;10366789;28;20164;-57
2023/12/01 23:52:17;;;;;;;8.73;6.50;;;14.90;60.20;;;;;;10329775;28;20058;-57
2023/12/01 23:57:18;;;;;;;8.35;6.57;;;14.90;60.60;;;;;;10327071;28;20532;-57
